Time;durP1;ratioP1;P1;durP2;ratioP2;P2;SDS_P1;SDS_P2;PMS_P1;PMS_P2;Temp;Humidity;BMP_temperature;BMP_pressure;BME280_temperature;BME280_humidity;BME280_pressure;Samples;Min_cycle;Max_cycle;Signal;HPM_P1;HPM_P2
2022/08/24 00:02:25;;;;;;;7.80;1.20;;;42.40;41.30;;;;;;5051293;28;20047;-67
2022/08/24 00:04:52;;;;;;;5.70;1.38;;;42.30;41.50;;;;;;5055664;28;20127;-68
2022/08/24 00:07:20;;;;;;;9.75;1.58;;;42.10;41.60;;;;;;5050796;28;20039;-67
2022/08/24 00:09:47;;;;;;;4.40;1.25;;;42.10;41.70;;;;;;5053291;28;20032;-67
2022/08/24 00:12:14;;;;;;;10.88;1.80;;;42.00;41.60;;;;;;5047263;28;20021;-69
2022/08/24 00:14:42;;;;;;;7.97;2.10;;;42.00;42.00;;;;;;5052172;28;20067;-66
2022/08/24 00:17:09;;;;;;;8.93;1.42;;;41.90;42.20;;;;;;5050191;28;20066;-66
2022/08/24 00:19:35;;;;;;;10.98;1.83;;;41.90;41.50;;;;;;5053867;28;20029;-71
2022/08/24 00:22:02;;;;;;;10.30;1.60;;;41.70;42.00;;;;;;5067931;28;20020;-68
2022/08/24 00:24:28;;;;;;;5.70;1.27;;;41.60;42.20;;;;;;5053028;28;20047;-70
2022/08/24 00:26:55;;;;;;;10.50;2.13;;;41.60;42.50;;;;;;5069675;28;20120;-68
2022/08/24 00:29:22;;;;;;;5.55;1.30;;;41.60;42.70;;;;;;5059368;28;20035;-67
2022/08/24 00:31:49;;;;;;;5.65;1.58;;;41.50;42.50;;;;;;5050113;28;20076;-67
2022/08/24 00:34:16;;;;;;;7.15;2.03;;;41.30;42.40;;;;;;5050602;28;20031;-68
2022/08/24 00:36:44;;;;;;;10.23;1.80;;;41.30;42.60;;;;;;5051489;28;20039;-68
2022/08/24 00:39:11;;;;;;;9.63;1.50;;;41.30;42.50;;;;;;5050705;28;20066;-68
2022/08/24 00:41:43;;;;;;;14.60;1.63;;;41.20;42.40;;;;;;5050589;28;20067;-65
2022/08/24 00:44:10;;;;;;;9.48;1.98;;;41.30;42.60;;;;;;5068290;28;20042;-66
2022/08/24 00:46:43;;;;;;;9.23;1.70;;;41.20;42.60;;;;;;5031510;28;20086;-71
2022/08/24 00:49:20;;;;;;;6.90;1.85;;;41.20;42.40;;;;;;5070037;28;20056;-69
2022/08/24 00:51:55;;;;;;;13.88;2.33;;;41.10;44.40;;;;;;5052397;28;20068;-69
2022/08/24 00:54:25;;;;;;;11.07;2.23;;;40.90;44.00;;;;;;5049956;28;20111;-69
2022/08/24 00:56:57;;;;;;;8.73;2.10;;;40.60;49.20;;;;;;5050318;28;20033;-70
2022/08/24 00:59:41;;;;;;;7.50;1.55;;;40.40;45.10;;;;;;5066044;28;20147;-68
2022/08/24 01:02:13;;;;;;;8.98;2.30;;;40.30;45.60;;;;;;5049928;28;20059;-70
2022/08/24 01:04:47;;;;;;;9.07;2.42;;;40.10;48.10;;;;;;5065904;28;20060;-68
2022/08/24 01:07:15;;;;;;;22.40;2.70;;;40.10;47.60;;;;;;5051634;28;20129;-68
2022/08/24 01:09:41;;;;;;;7.57;2.00;;;40.00;45.80;;;;;;5049905;28;20048;-68
2022/08/24 01:12:08;;;;;;;8.60;1.88;;;39.90;44.70;;;;;;5051992;28;20529;-66
2022/08/24 01:14:37;;;;;;;6.35;1.60;;;39.90;45.60;;;;;;5051696;28;20460;-68
2022/08/24 01:19:54;;;;;;;30.08;2.25;;;39.70;46.00;;;;;;5049654;28;20098;-69
2022/08/24 01:22:42;;;;;;;9.35;1.63;;;39.50;45.70;;;;;;5049750;28;20141;-69
2022/08/24 01:25:08;;;;;;;5.80;1.88;;;39.50;45.60;;;;;;5050735;28;20044;-69
2022/08/24 01:27:36;;;;;;;8.38;1.90;;;39.50;45.60;;;;;;5067309;28;20120;-69
2022/08/24 01:30:11;;;;;;;9.85;2.33;;;39.40;45.70;;;;;;5045483;28;20057;-67
2022/08/24 01:32:38;;;;;;;5.05;2.13;;;39.30;45.80;;;;;;5049016;28;20045;-68
2022/08/24 01:35:06;;;;;;;7.97;1.70;;;39.20;45.60;;;;;;5047548;28;20392;-69
2022/08/24 01:37:33;;;;;;;11.25;2.38;;;39.20;45.90;;;;;;5049465;28;20405;-66
2022/08/24 01:40:05;;;;;;;12.73;2.20;;;39.10;46.00;;;;;;5048870;28;20085;-67
2022/08/24 01:42:33;;;;;;;9.77;2.30;;;39.00;46.50;;;;;;5050324;28;20051;-66
2022/08/24 01:45:00;;;;;;;5.40;1.77;;;39.00;45.90;;;;;;5051389;28;20055;-66
2022/08/24 01:47:26;;;;;;;11.45;2.08;;;38.90;46.20;;;;;;5047164;28;20052;-66
2022/08/24 01:49:52;;;;;;;13.40;2.13;;;38.90;46.00;;;;;;5053757;28;20069;-67
2022/08/24 01:52:24;;;;;;;11.65;2.35;;;38.80;46.20;;;;;;5054132;28;20479;-69
2022/08/24 01:54:51;;;;;;;15.77;2.00;;;38.80;46.30;;;;;;5049169;28;20044;-65
2022/08/24 01:57:18;;;;;;;13.45;2.25;;;38.80;46.20;;;;;;5048778;28;20055;-67
2022/08/24 01:59:44;;;;;;;13.65;3.28;;;38.70;46.20;;;;;;5046471;28;20058;-66
2022/08/24 02:02:16;;;;;;;11.20;2.20;;;38.60;46.50;;;;;;5046865;28;20068;-67
2022/08/24 02:04:42;;;;;;;11.20;2.47;;;38.60;46.40;;;;;;5049108;28;20044;-64
2022/08/24 02:07:09;;;;;;;11.55;2.90;;;38.50;46.30;;;;;;5049423;28;20069;-65
2022/08/24 02:09:37;;;;;;;9.50;2.00;;;38.50;46.20;;;;;;5064606;28;20051;-66
2022/08/24 02:12:05;;;;;;;14.93;2.25;;;38.40;46.40;;;;;;5047704;28;20125;-64
2022/08/24 02:14:32;;;;;;;14.52;2.08;;;38.30;46.40;;;;;;5046583;28;20049;-66
2022/08/24 02:16:58;;;;;;;10.38;2.20;;;38.30;47.00;;;;;;5049529;28;20143;-66
2022/08/24 02:19:26;;;;;;;8.52;2.05;;;38.30;46.90;;;;;;5049784;28;20399;-68
2022/08/24 02:21:52;;;;;;;13.70;2.40;;;38.20;47.30;;;;;;5047945;28;20089;-69
2022/08/24 02:24:19;;;;;;;15.02;3.25;;;38.10;47.20;;;;;;5049951;28;20058;-69
2022/08/24 02:26:45;;;;;;;10.35;2.20;;;38.10;47.80;;;;;;5049561;28;20049;-66
2022/08/24 02:29:12;;;;;;;9.38;1.75;;;38.00;47.60;;;;;;5048175;28;20064;-68
2022/08/24 02:31:41;;;;;;;8.55;1.88;;;38.00;47.90;;;;;;5052720;28;20067;-67
2022/08/24 02:34:07;;;;;;;10.57;2.20;;;37.90;48.10;;;;;;5063457;28;20064;-70
2022/08/24 02:36:34;;;;;;;13.38;2.97;;;37.90;48.20;;;;;;5045813;28;20127;-67
2022/08/24 02:39:01;;;;;;;14.73;2.58;;;37.80;48.70;;;;;;5048065;28;20187;-68
2022/08/24 02:41:27;;;;;;;14.10;2.70;;;37.80;48.90;;;;;;5047850;28;20048;-67
2022/08/24 02:43:55;;;;;;;14.18;2.13;;;37.70;49.30;;;;;;5062754;28;20515;-68
2022/08/24 02:46:27;;;;;;;13.30;2.78;;;37.70;49.70;;;;;;5048587;28;20607;-69
2022/08/24 02:48:54;;;;;;;19.65;2.58;;;37.60;49.90;;;;;;5066839;28;20056;-67
2022/08/24 02:51:23;;;;;;;11.23;2.38;;;37.50;50.10;;;;;;5049391;28;20419;-67
2022/08/24 02:53:50;;;;;;;10.63;2.60;;;37.50;50.30;;;;;;5050102;28;20044;-67
2022/08/24 02:56:19;;;;;;;20.48;2.70;;;37.40;50.60;;;;;;5047074;28;20537;-68
2022/08/24 02:58:46;;;;;;;13.30;2.05;;;37.30;50.70;;;;;;5048993;28;20089;-68
2022/08/24 03:01:14;;;;;;;14.95;2.40;;;37.30;50.80;;;;;;5047356;28;20064;-70
2022/08/24 03:03:41;;;;;;;11.38;2.28;;;37.20;50.90;;;;;;5047077;28;20506;-66
2022/08/24 03:06:09;;;;;;;13.13;2.50;;;37.20;51.20;;;;;;5052858;28;20102;-67
2022/08/24 03:08:36;;;;;;;12.00;2.17;;;37.10;51.60;;;;;;5064093;28;20447;-68
2022/08/24 03:11:04;;;;;;;12.35;2.00;;;37.10;52.00;;;;;;5047576;28;20221;-68
2022/08/24 03:13:30;;;;;;;13.60;2.22;;;37.00;52.20;;;;;;5071440;28;20073;-66
2022/08/24 03:15:58;;;;;;;13.98;2.38;;;36.90;52.70;;;;;;5048235;28;20540;-67
2022/08/24 03:18:26;;;;;;;10.70;2.38;;;36.90;53.40;;;;;;5047861;28;20078;-66
2022/08/24 03:20:53;;;;;;;12.82;2.50;;;36.80;54.00;;;;;;5049492;28;20078;-68
2022/08/24 03:23:21;;;;;;;13.65;2.47;;;36.70;54.30;;;;;;5047176;28;20143;-67
2022/08/24 03:25:47;;;;;;;15.63;2.75;;;36.60;54.80;;;;;;5049101;28;20063;-67
2022/08/24 03:28:14;;;;;;;53.33;3.20;;;36.60;55.00;;;;;;5050024;28;20106;-70
2022/08/24 03:30:42;;;;;;;10.85;2.45;;;36.50;55.40;;;;;;5047263;28;20091;-67
2022/08/24 03:33:09;;;;;;;23.98;2.95;;;36.50;55.80;;;;;;5048606;28;20063;-67
2022/08/24 03:35:36;;;;;;;11.80;2.75;;;36.40;56.20;;;;;;5046328;28;20065;-68
2022/08/24 03:38:03;;;;;;;13.10;3.15;;;36.30;56.40;;;;;;5061994;28;20064;-66
2022/08/24 03:40:32;;;;;;;11.25;2.17;;;36.30;56.70;;;;;;5047802;28;20430;-66
2022/08/24 03:43:00;;;;;;;10.07;2.47;;;36.20;56.90;;;;;;5048414;28;20058;-66
2022/08/24 03:45:27;;;;;;;11.82;2.15;;;36.20;56.90;;;;;;5063667;28;20066;-67
2022/08/24 03:47:54;;;;;;;11.70;1.90;;;36.10;56.80;;;;;;5050497;28;20098;-65
2022/08/24 03:50:22;;;;;;;10.05;1.85;;;36.00;57.00;;;;;;5064256;28;20089;-67
2022/08/24 03:52:49;;;;;;;10.30;1.80;;;36.00;57.10;;;;;;5048953;28;20120;-67
2022/08/24 03:55:15;;;;;;;8.20;2.20;;;35.90;57.00;;;;;;5047513;28;20111;-68
2022/08/24 03:57:42;;;;;;;17.50;2.28;;;35.90;57.20;;;;;;5049062;28;20104;-66
2022/08/24 04:00:11;;;;;;;9.45;1.83;;;35.90;57.40;;;;;;5049840;28;20075;-68
2022/08/24 04:02:38;;;;;;;13.07;2.38;;;35.80;57.50;;;;;;5068710;28;20148;-66
2022/08/24 04:05:06;;;;;;;9.90;2.00;;;35.80;57.70;;;;;;5048931;28;20117;-68
2022/08/24 04:07:32;;;;;;;14.38;1.98;;;35.70;57.90;;;;;;5053746;28;20102;-69
2022/08/24 04:10:00;;;;;;;7.60;2.03;;;35.60;58.00;;;;;;5048357;28;20095;-67
2022/08/24 04:12:27;;;;;;;12.70;2.20;;;35.50;58.10;;;;;;5045914;28;20143;-67
2022/08/24 04:14:56;;;;;;;17.17;1.73;;;35.60;58.20;;;;;;5046102;28;20085;-67
2022/08/24 04:17:23;;;;;;;9.52;2.30;;;35.50;58.20;;;;;;5049418;28;20866;-66
2022/08/24 04:19:58;;;;;;;10.15;1.75;;;35.40;58.30;;;;;;5063785;28;20167;-67
2022/08/24 04:22:27;;;;;;;15.23;2.43;;;35.40;58.50;;;;;;5047971;28;20069;-66
2022/08/24 04:24:57;;;;;;;13.70;1.90;;;35.40;58.40;;;;;;5062931;28;20348;-66
2022/08/24 04:27:23;;;;;;;9.25;1.60;;;35.40;58.60;;;;;;5049716;28;20400;-66
2022/08/24 04:29:50;;;;;;;16.90;2.30;;;35.40;58.60;;;;;;5049901;28;20060;-67
2022/08/24 04:32:17;;;;;;;9.43;1.88;;;35.30;58.80;;;;;;5052687;28;20530;-67
2022/08/24 04:34:45;;;;;;;11.10;1.88;;;35.30;58.90;;;;;;5069603;28;20069;-67
2022/08/24 04:37:14;;;;;;;14.88;2.20;;;35.30;59.10;;;;;;5047486;28;20080;-65
2022/08/24 04:39:41;;;;;;;8.80;2.00;;;35.20;59.30;;;;;;5062895;28;20481;-68
2022/08/24 04:42:08;;;;;;;10.32;1.85;;;35.20;59.30;;;;;;5050808;28;20063;-67
2022/08/24 04:44:35;;;;;;;14.48;1.95;;;35.20;59.30;;;;;;5052186;28;20095;-67
2022/08/24 04:47:03;;;;;;;12.70;2.00;;;35.20;59.50;;;;;;5049427;28;20059;-68
2022/08/24 04:49:29;;;;;;;9.48;1.55;;;35.20;59.60;;;;;;5066156;28;20074;-67
2022/08/24 04:51:57;;;;;;;12.60;1.75;;;35.10;59.70;;;;;;5049955;28;20557;-67
2022/08/24 04:54:24;;;;;;;7.65;1.80;;;35.10;59.90;;;;;;5050048;28;20066;-66
2022/08/24 04:56:50;;;;;;;9.77;1.73;;;35.10;60.00;;;;;;5049899;28;20101;-68
2022/08/24 04:59:17;;;;;;;9.95;2.10;;;35.10;60.20;;;;;;5052004;28;20065;-69
2022/08/24 05:01:43;;;;;;;11.23;1.70;;;35.10;60.60;;;;;;5050191;28;20117;-68
2022/08/24 05:04:10;;;;;;;15.02;2.10;;;35.00;60.70;;;;;;5050171;28;20413;-66
2022/08/24 05:06:36;;;;;;;7.45;1.80;;;34.90;60.80;;;;;;5049691;28;20066;-64
2022/08/24 05:09:05;;;;;;;10.18;1.70;;;35.00;61.10;;;;;;5049397;28;20147;-63
2022/08/24 05:11:34;;;;;;;6.07;1.70;;;35.00;61.40;;;;;;5064002;28;20081;-62
2022/08/24 05:14:00;;;;;;;10.20;1.65;;;34.90;61.60;;;;;;5071332;28;20081;-64
2022/08/24 05:16:27;;;;;;;9.13;1.60;;;34.90;62.00;;;;;;5049035;28;20077;-62
2022/08/24 05:18:55;;;;;;;16.30;1.90;;;34.90;62.40;;;;;;5049767;28;20077;-64
2022/08/24 05:21:23;;;;;;;12.40;1.90;;;34.80;62.20;;;;;;5049849;28;20073;-63
2022/08/24 05:23:50;;;;;;;13.80;2.35;;;34.80;62.40;;;;;;5050279;28;20535;-64
2022/08/24 05:26:21;;;;;;;9.43;1.70;;;34.70;62.60;;;;;;5049688;28;20077;-62
2022/08/24 05:28:47;;;;;;;6.35;1.52;;;34.70;63.00;;;;;;5049488;28;20102;-61
2022/08/24 05:31:19;;;;;;;12.38;2.05;;;34.70;63.30;;;;;;5049303;28;20084;-61
2022/08/24 05:33:47;;;;;;;7.97;1.60;;;34.70;63.40;;;;;;5048468;28;20573;-61
2022/08/24 05:36:18;;;;;;;13.15;1.83;;;34.60;63.60;;;;;;5048865;28;20096;-62
2022/08/24 05:38:46;;;;;;;10.68;1.95;;;34.60;63.90;;;;;;5054650;28;20069;-60
2022/08/24 05:41:16;;;;;;;10.23;2.15;;;34.60;64.10;;;;;;5050236;28;20073;-62
2022/08/24 05:43:43;;;;;;;6.88;2.08;;;34.50;64.20;;;;;;5049342;28;20161;-61
2022/08/24 05:46:14;;;;;;;5.60;1.33;;;34.60;64.40;;;;;;5062922;28;20221;-62
2022/08/24 05:48:41;;;;;;;8.73;1.90;;;34.50;64.40;;;;;;5060604;28;20074;-62
2022/08/24 05:51:09;;;;;;;10.80;2.30;;;34.50;64.40;;;;;;5047431;28;20098;-61
2022/08/24 05:53:35;;;;;;;12.98;1.90;;;34.50;64.40;;;;;;5050727;28;20473;-62
2022/08/24 05:56:08;;;;;;;8.07;2.97;;;34.50;64.30;;;;;;5048035;28;20542;-62
2022/08/24 05:58:36;;;;;;;7.78;2.35;;;34.50;64.30;;;;;;5048857;28;20070;-62
2022/08/24 06:01:12;;;;;;;7.50;2.10;;;34.50;64.10;;;;;;5045970;28;20125;-62
2022/08/24 06:03:39;;;;;;;7.95;1.80;;;34.40;64.80;;;;;;5050566;28;20072;-61
2022/08/24 06:06:07;;;;;;;6.03;2.10;;;34.40;64.30;;;;;;5049555;28;20093;-61
2022/08/24 06:08:46;;;;;;;9.38;1.95;;;34.40;64.90;;;;;;5048944;28;20088;-61
2022/08/24 06:11:28;;;;;;;8.18;2.55;;;34.40;65.80;;;;;;5051601;28;20082;-61
2022/08/24 06:13:58;;;;;;;10.40;2.40;;;34.40;66.30;;;;;;5051559;28;20073;-61
2022/08/24 06:16:25;;;;;;;9.20;2.33;;;34.40;66.80;;;;;;5045335;28;20138;-62
2022/08/24 06:18:52;;;;;;;10.68;2.20;;;34.30;67.30;;;;;;5062284;28;20089;-62
2022/08/24 06:21:26;;;;;;;6.60;2.10;;;34.20;68.90;;;;;;5048822;28;20068;-63
2022/08/24 06:23:53;;;;;;;11.55;2.22;;;34.00;70.30;;;;;;5047391;28;20073;-60
2022/08/24 06:29:07;;;;;;;7.43;2.03;;;33.80;71.20;;;;;;5050696;28;20148;-62
2022/08/24 06:31:39;;;;;;;8.70;2.20;;;33.70;71.90;;;;;;5048640;28;20138;-61
2022/08/24 06:34:10;;;;;;;6.55;2.05;;;33.60;72.30;;;;;;5048984;28;20082;-62
2022/08/24 06:36:37;;;;;;;6.60;2.25;;;33.50;72.60;;;;;;5048559;28;20086;-61
2022/08/24 06:39:04;;;;;;;9.43;2.33;;;33.60;73.20;;;;;;5061610;28;20070;-61
2022/08/24 06:41:31;;;;;;;6.35;2.50;;;33.50;73.10;;;;;;5047613;28;20082;-61
2022/08/24 06:43:58;;;;;;;12.60;1.95;;;33.50;74.10;;;;;;5047708;28;20096;-61
2022/08/24 06:46:24;;;;;;;11.02;2.45;;;33.40;73.70;;;;;;5048681;28;20502;-63
2022/08/24 06:48:51;;;;;;;7.63;1.70;;;33.50;74.20;;;;;;5045959;28;20659;-62
2022/08/24 06:51:21;;;;;;;13.13;1.50;;;33.40;74.80;;;;;;5064727;28;20086;-62
2022/08/24 06:53:49;;;;;;;4.70;1.75;;;33.40;74.70;;;;;;5056863;28;20084;-61
2022/08/24 06:56:16;;;;;;;7.25;1.90;;;33.30;75.10;;;;;;5049356;28;20073;-61
2022/08/24 06:58:44;;;;;;;9.10;1.90;;;33.30;75.30;;;;;;5055168;28;20093;-63
2022/08/24 07:01:14;;;;;;;14.35;2.10;;;33.30;75.80;;;;;;5048334;28;20081;-62
2022/08/24 07:03:41;;;;;;;5.00;1.80;;;33.30;76.20;;;;;;5047610;28;20157;-61
2022/08/24 07:06:07;;;;;;;6.43;2.33;;;33.30;76.50;;;;;;5047283;28;20100;-63
2022/08/24 07:08:35;;;;;;;14.40;2.63;;;33.20;76.20;;;;;;5047929;28;20081;-62
2022/08/24 07:11:02;;;;;;;9.95;1.98;;;33.30;77.10;;;;;;5064056;28;20133;-62
2022/08/24 07:13:32;;;;;;;7.55;2.22;;;33.30;76.20;;;;;;5049806;28;20136;-61
2022/08/24 07:15:58;;;;;;;11.13;1.85;;;33.20;76.30;;;;;;5048640;28;20063;-61
2022/08/24 07:18:25;;;;;;;6.50;1.75;;;33.20;76.50;;;;;;5047377;28;20600;-64
2022/08/24 07:20:52;;;;;;;15.00;2.28;;;33.30;76.90;;;;;;5064440;28;20095;-60
2022/08/24 07:23:19;;;;;;;8.45;2.17;;;33.30;76.90;;;;;;5047954;28;20071;-61
2022/08/24 07:25:46;;;;;;;10.45;2.35;;;33.30;77.30;;;;;;5047924;28;20547;-63
2022/08/24 07:28:13;;;;;;;8.73;2.00;;;33.30;77.60;;;;;;5047666;28;20072;-62
2022/08/24 07:30:41;;;;;;;14.20;2.33;;;33.20;78.00;;;;;;5046486;28;20457;-63
2022/08/24 07:33:08;;;;;;;9.85;2.15;;;33.20;78.20;;;;;;5047765;28;20074;-63
2022/08/24 07:35:35;;;;;;;9.05;2.25;;;33.20;78.40;;;;;;5048235;28;20092;-63
2022/08/24 07:38:04;;;;;;;9.75;1.88;;;33.20;78.80;;;;;;5047275;28;20096;-62
2022/08/24 07:40:31;;;;;;;7.00;2.00;;;33.20;79.30;;;;;;5044102;28;20120;-63
2022/08/24 07:42:58;;;;;;;5.80;2.15;;;33.30;79.90;;;;;;5047498;28;20106;-62
2022/08/24 07:45:25;;;;;;;8.93;2.20;;;33.20;80.00;;;;;;5047153;28;20073;-62
2022/08/24 07:47:52;;;;;;;10.82;2.55;;;33.10;80.40;;;;;;5046761;28;20071;-63
2022/08/24 07:50:19;;;;;;;11.50;2.25;;;33.10;81.00;;;;;;5047762;28;20103;-63
2022/08/24 07:52:46;;;;;;;10.55;2.50;;;33.10;81.10;;;;;;5049260;28;20155;-62
2022/08/24 07:55:14;;;;;;;7.05;2.10;;;33.10;81.30;;;;;;5047135;28;20093;-62
2022/08/24 07:57:43;;;;;;;10.77;2.53;;;33.10;81.30;;;;;;5047557;28;20073;-62
2022/08/24 08:00:12;;;;;;;10.35;2.08;;;33.10;81.20;;;;;;5050606;28;20079;-60
2022/08/24 08:02:41;;;;;;;6.13;1.70;;;33.00;81.30;;;;;;5051339;28;20088;-64
2022/08/24 08:05:08;;;;;;;11.82;2.40;;;33.00;81.40;;;;;;5051093;28;20434;-62
2022/08/24 08:07:34;;;;;;;9.98;2.28;;;33.00;81.90;;;;;;5051845;28;20067;-62
2022/08/24 08:10:02;;;;;;;12.30;2.10;;;33.00;82.10;;;;;;5051265;28;20099;-62
2022/08/24 08:12:28;;;;;;;5.70;2.08;;;32.90;82.20;;;;;;5052141;28;20072;-64
2022/08/24 08:14:56;;;;;;;10.75;2.13;;;32.90;82.20;;;;;;5050781;28;20073;-61
2022/08/24 08:17:23;;;;;;;11.57;2.30;;;32.90;82.10;;;;;;5052810;28;20079;-63
2022/08/24 08:19:49;;;;;;;13.65;2.20;;;32.90;82.50;;;;;;5052141;28;20071;-64
2022/08/24 08:25:01;;;;;;;9.57;2.55;;;32.90;83.10;;;;;;5052010;28;20490;-62
2022/08/24 08:27:27;;;;;;;21.33;3.85;;;32.90;83.60;;;;;;5050853;28;20109;-63
2022/08/24 08:29:54;;;;;;;12.48;2.97;;;32.80;83.90;;;;;;5050256;28;20574;-63
2022/08/24 08:32:20;;;;;;;17.77;3.17;;;32.80;84.40;;;;;;5052792;28;20079;-62
2022/08/24 08:34:47;;;;;;;6.57;2.30;;;32.70;84.80;;;;;;5050478;28;20441;-62
2022/08/24 08:37:14;;;;;;;9.05;2.85;;;32.70;85.50;;;;;;5050609;28;20079;-62
2022/08/24 08:39:40;;;;;;;8.07;2.42;;;32.70;85.90;;;;;;5050887;28;20119;-61
2022/08/24 08:42:45;;;;;;;8.40;2.90;;;32.70;86.00;;;;;;5064692;28;20084;-63
2022/08/24 08:45:22;;;;;;;9.80;2.75;;;32.60;86.20;;;;;;5065677;28;20068;-61
2022/08/24 08:47:51;;;;;;;11.27;2.88;;;32.60;86.30;;;;;;5064203;28;20080;-61
2022/08/24 08:50:27;;;;;;;10.55;2.45;;;32.60;86.50;;;;;;5051178;28;20145;-63
2022/08/24 08:53:30;;;;;;;12.48;2.90;;;32.60;86.70;;;;;;5050292;28;20072;-62
2022/08/24 08:56:18;;;;;;;7.72;2.20;;;32.60;87.20;;;;;;5050499;28;20171;-62
2022/08/24 08:59:09;;;;;;;9.38;1.90;;;32.60;87.40;;;;;;5066728;28;20425;-63
2022/08/24 09:01:48;;;;;;;9.50;2.25;;;32.60;88.00;;;;;;5050304;28;20072;-62
2022/08/24 09:04:44;;;;;;;7.10;2.13;;;32.50;88.70;;;;;;5049244;28;20854;-63
2022/08/24 09:07:10;;;;;;;9.07;2.35;;;32.40;89.20;;;;;;5049159;28;20103;-62
2022/08/24 09:10:01;;;;;;;8.40;2.35;;;32.50;89.50;;;;;;5050662;28;20090;-63
2022/08/24 09:13:11;;;;;;;6.93;2.10;;;32.40;90.00;;;;;;5050387;28;20119;-60
2022/08/24 09:16:18;;;;;;;10.35;2.25;;;32.40;90.30;;;;;;5011908;28;20170;-62
2022/08/24 09:19:03;;;;;;;10.75;2.60;;;32.40;90.60;;;;;;5062657;28;20515;-62
2022/08/24 09:21:57;;;;;;;10.00;2.63;;;32.40;90.60;;;;;;5050626;28;20175;-62
2022/08/24 09:24:45;;;;;;;7.57;2.28;;;32.30;90.70;;;;;;5049416;28;20075;-62
2022/08/24 09:27:31;;;;;;;9.13;2.55;;;32.30;90.70;;;;;;5049298;28;20071;-62
2022/08/24 09:30:17;;;;;;;10.15;2.40;;;32.30;91.00;;;;;;5050994;28;20129;-63
2022/08/24 09:32:43;;;;;;;10.77;2.80;;;32.30;91.30;;;;;;5050430;28;20061;-61
2022/08/24 09:35:21;;;;;;;10.52;2.40;;;32.30;91.50;;;;;;5050006;28;20076;-61
2022/08/24 09:37:59;;;;;;;8.68;2.38;;;32.20;91.60;;;;;;5049387;28;20100;-62
2022/08/24 09:40:28;;;;;;;8.25;2.40;;;32.20;91.90;;;;;;5063385;28;20553;-62
2022/08/24 09:43:28;;;;;;;8.55;2.20;;;32.20;92.10;;;;;;5047601;28;20075;-61
2022/08/24 09:46:19;;;;;;;7.53;2.00;;;32.20;92.30;;;;;;5048758;28;20099;-62
2022/08/24 09:48:52;;;;;;;7.22;2.50;;;32.10;92.60;;;;;;5055344;28;20080;-62
2022/08/24 09:51:30;;;;;;;9.20;2.60;;;32.10;92.90;;;;;;5049727;28;20226;-62
2022/08/24 09:54:45;;;;;;;14.77;2.65;;;32.10;93.30;;;;;;5055480;28;20161;-61
2022/08/24 09:57:18;;;;;;;10.77;2.80;;;32.20;93.20;;;;;;4994419;28;20101;-63
2022/08/24 10:00:06;;;;;;;9.57;2.88;;;32.30;93.20;;;;;;5049257;28;20430;-63
2022/08/24 10:02:52;;;;;;;7.68;2.15;;;32.40;93.20;;;;;;5049108;28;20105;-63
2022/08/24 10:05:37;;;;;;;6.93;2.03;;;32.40;93.10;;;;;;5048328;28;20565;-62
2022/08/24 10:08:10;;;;;;;7.95;2.50;;;32.50;92.90;;;;;;5048811;28;20075;-63
2022/08/24 10:11:07;;;;;;;6.50;2.75;;;32.60;92.60;;;;;;5049083;28;20133;-65
2022/08/24 10:13:48;;;;;;;7.65;2.30;;;32.50;92.50;;;;;;5051693;28;20502;-65
2022/08/24 10:16:27;;;;;;;8.10;2.40;;;32.60;92.50;;;;;;5047581;28;20182;-63
2022/08/24 10:19:04;;;;;;;10.75;2.97;;;32.50;92.70;;;;;;5049468;28;20515;-63
2022/08/24 10:22:00;;;;;;;7.60;2.63;;;32.50;92.90;;;;;;5051230;28;20071;-64
2022/08/24 10:25:09;;;;;;;9.23;2.45;;;32.40;93.20;;;;;;5045946;28;20095;-66
2022/08/24 10:28:11;;;;;;;7.68;2.40;;;32.40;93.80;;;;;;5029208;28;20095;-63
2022/08/24 10:31:03;;;;;;;10.77;2.50;;;32.30;94.10;;;;;;5055239;28;20429;-65
2022/08/24 10:33:32;;;;;;;9.40;2.15;;;32.30;94.30;;;;;;5043755;28;20103;-64
2022/08/24 10:36:17;;;;;;;10.30;2.88;;;32.30;94.50;;;;;;5049736;28;20099;-64
2022/08/24 10:45:31;;;;;;;6.40;2.03;;;32.30;95.00;;;;;;5047475;28;20091;-64
2022/08/24 10:48:11;;;;;;;9.32;2.47;;;32.30;95.30;;;;;;5046558;28;20594;-64
2022/08/24 10:50:55;;;;;;;9.77;2.25;;;32.30;95.30;;;;;;5050378;28;20153;-63
2022/08/24 10:53:30;;;;;;;9.07;2.63;;;32.30;95.50;;;;;;5049101;28;20526;-65
2022/08/24 10:56:10;;;;;;;9.25;2.10;;;32.30;95.40;;;;;;5047792;28;20130;-63
2022/08/24 10:58:58;;;;;;;9.18;2.22;;;32.30;95.70;;;;;;5047077;28;20162;-63
2022/08/24 11:01:32;;;;;;;10.18;2.60;;;32.20;95.90;;;;;;5047077;28;20083;-63
2022/08/24 11:04:07;;;;;;;6.80;2.30;;;32.20;96.10;;;;;;5047712;28;20088;-65
2022/08/24 11:07:02;;;;;;;7.15;2.10;;;32.20;96.00;;;;;;5049623;28;20590;-64
2022/08/24 11:09:45;;;;;;;10.50;2.67;;;32.10;96.10;;;;;;5047507;28;20076;-63
2022/08/24 11:12:25;;;;;;;10.20;2.30;;;32.10;96.40;;;;;;5049724;28;20105;-63
2022/08/24 11:14:53;;;;;;;7.68;2.30;;;32.10;96.50;;;;;;5048930;28;20069;-63
2022/08/24 11:17:23;;;;;;;8.27;2.50;;;32.10;96.60;;;;;;5065978;28;20171;-65
2022/08/24 11:19:51;;;;;;;7.07;2.20;;;32.00;96.60;;;;;;5047635;28;20076;-63
2022/08/24 11:22:43;;;;;;;12.98;2.85;;;32.10;96.90;;;;;;5063910;28;20069;-63
2022/08/24 11:25:20;;;;;;;9.38;2.50;;;32.00;96.80;;;;;;5048235;28;20077;-63
2022/08/24 11:27:50;;;;;;;8.82;2.83;;;31.90;97.00;;;;;;5048416;28;20534;-63
2022/08/24 11:30:22;;;;;;;8.25;2.33;;;32.00;97.10;;;;;;5048947;28;20516;-63
2022/08/24 11:32:58;;;;;;;8.63;2.92;;;31.80;97.40;;;;;;5046719;28;20076;-64
2022/08/24 11:35:31;;;;;;;10.02;2.72;;;31.90;97.50;;;;;;5052156;28;20109;-62
2022/08/24 11:38:17;;;;;;;12.20;2.60;;;31.80;97.50;;;;;;5054043;28;20488;-62
2022/08/24 11:40:58;;;;;;;13.20;2.70;;;31.80;97.70;;;;;;5054280;28;20112;-62
2022/08/24 11:44:09;;;;;;;9.77;2.75;;;31.80;97.80;;;;;;5057649;28;20080;-62
2022/08/24 11:46:45;;;;;;;7.75;2.78;;;31.70;98.00;;;;;;5049836;28;20082;-64
2022/08/24 11:49:14;;;;;;;11.93;2.40;;;31.70;98.30;;;;;;5053397;28;20076;-63
2022/08/24 11:51:50;;;;;;;9.48;2.80;;;31.60;98.30;;;;;;5070407;28;20087;-62
2022/08/24 11:54:23;;;;;;;7.50;2.38;;;31.60;98.40;;;;;;5054674;28;20080;-63
2022/08/24 11:57:11;;;;;;;7.25;2.42;;;31.60;98.60;;;;;;5065980;28;20080;-63
2022/08/24 11:59:53;;;;;;;6.75;2.42;;;31.60;98.60;;;;;;5053887;28;20098;-65
2022/08/24 12:02:31;;;;;;;10.05;2.47;;;31.60;98.80;;;;;;5053308;28;20470;-63
2022/08/24 12:05:23;;;;;;;9.00;2.75;;;31.50;99.30;;;;;;5053474;28;20479;-63
2022/08/24 12:08:20;;;;;;;14.88;3.13;;;31.40;99.60;;;;;;5053264;28;20081;-63
2022/08/24 12:11:04;;;;;;;7.75;2.50;;;31.40;99.70;;;;;;5054551;28;20084;-63
2022/08/24 12:13:52;;;;;;;11.13;2.67;;;31.40;99.90;;;;;;5062103;28;20150;-63
2022/08/24 12:16:19;;;;;;;10.60;2.75;;;31.40;99.90;;;;;;5053198;28;20171;-64
2022/08/24 12:19:24;;;;;;;12.43;3.45;;;31.40;99.90;;;;;;5054058;28;20120;-63
2022/08/24 12:21:56;;;;;;;14.65;3.25;;;31.30;99.90;;;;;;5016562;28;20134;-63
2022/08/24 12:24:30;;;;;;;12.68;3.28;;;31.30;99.90;;;;;;5032142;28;20181;-63
2022/08/24 12:27:11;;;;;;;11.23;3.15;;;31.30;99.90;;;;;;5032744;28;20091;-64
2022/08/24 12:30:02;;;;;;;11.48;3.42;;;31.20;99.90;;;;;;5032712;28;20093;-63
2022/08/24 12:32:39;;;;;;;11.60;3.35;;;31.20;99.90;;;;;;5033201;28;20073;-62
2022/08/24 12:35:09;;;;;;;11.18;2.90;;;31.20;99.90;;;;;;5014595;28;20542;-63
2022/08/24 12:37:42;;;;;;;12.60;3.13;;;31.20;99.90;;;;;;5015998;28;20089;-64
2022/08/24 12:40:38;;;;;;;12.02;2.88;;;31.20;99.90;;;;;;5031780;28;20121;-63
2022/08/24 12:43:12;;;;;;;13.95;2.47;;;31.10;99.90;;;;;;5014329;28;20585;-64
2022/08/24 12:45:39;;;;;;;8.88;2.83;;;31.20;99.90;;;;;;5029970;28;20575;-63
2022/08/24 12:48:11;;;;;;;10.90;2.72;;;31.10;99.90;;;;;;5027259;28;20101;-64
2022/08/24 12:50:50;;;;;;;11.05;2.80;;;31.10;99.90;;;;;;5032022;28;20097;-64
2022/08/24 12:53:34;;;;;;;9.68;2.92;;;31.10;99.90;;;;;;5030238;28;20108;-65
2022/08/24 12:56:49;;;;;;;11.10;2.60;;;31.10;99.90;;;;;;5047475;28;20138;-64
2022/08/24 12:59:26;;;;;;;13.05;2.88;;;31.10;99.90;;;;;;5031683;28;20084;-64
2022/08/24 13:02:03;;;;;;;18.63;3.40;;;31.00;99.90;;;;;;5050382;28;21024;-64
2022/08/24 13:04:47;;;;;;;18.17;3.38;;;31.00;99.90;;;;;;5050543;28;20080;-63
2022/08/24 13:07:23;;;;;;;10.50;3.10;;;31.00;99.90;;;;;;5049738;28;20173;-64
2022/08/24 13:10:10;;;;;;;13.87;3.10;;;31.00;99.90;;;;;;5055136;28;20769;-66
2022/08/24 13:12:42;;;;;;;12.95;2.97;;;31.00;99.90;;;;;;5044697;28;20145;-64
2022/08/24 13:15:27;;;;;;;12.75;3.10;;;31.00;99.90;;;;;;5049821;28;20163;-63
2022/08/24 13:17:58;;;;;;;12.82;3.05;;;31.00;99.90;;;;;;5049205;28;20088;-63
2022/08/24 13:20:50;;;;;;;16.02;2.70;;;31.00;99.90;;;;;;5049395;28;20134;-64
2022/08/24 13:23:20;;;;;;;13.98;2.97;;;31.00;99.90;;;;;;5047841;28;20096;-65
2022/08/24 13:26:16;;;;;;;13.85;2.95;;;31.00;99.90;;;;;;5049459;28;20080;-63